Time;durP1;ratioP1;P1;durP2;ratioP2;P2;SDS_P1;SDS_P2;PMS_P1;PMS_P2;Temp;Humidity;BMP_temperature;BMP_pressure;BME280_temperature;BME280_humidity;BME280_pressure;Samples;Min_cycle;Max_cycle;Signal;HPM_P1;HPM_P2
2023/04/17 00:01:04;;;;;;;63.30;23.93;;;;;;;-145.18;100.00;46660.41;6153606;23;20236;-68
2023/04/17 00:03:30;;;;;;;56.33;23.60;;;;;;;-145.18;100.00;46666.25;6153084;23;20045;-67
2023/04/17 00:05:57;;;;;;;53.30;23.23;;;;;;;-145.18;100.00;46662.34;6153258;23;20012;-68
2023/04/17 00:08:22;;;;;;;53.50;24.37;;;;;;;-145.18;100.00;46662.34;6153125;23;20013;-67
2023/04/17 00:10:47;;;;;;;58.20;22.50;;;;;;;-145.18;100.00;46662.34;6153354;23;20286;-68
2023/04/17 00:13:13;;;;;;;50.70;23.67;;;;;;;-145.18;100.00;46662.34;6126845;23;20059;-68
2023/04/17 00:15:39;;;;;;;49.60;23.73;;;;;;;-145.18;100.00;46668.22;6153497;23;20122;-68
2023/04/17 00:18:04;;;;;;;53.77;23.70;;;;;;;-145.18;100.00;46670.16;6153227;23;20009;-68
2023/04/17 00:20:30;;;;;;;52.37;22.17;;;;;;;-145.18;100.00;46660.41;6127126;23;20013;-68
2023/04/17 00:22:55;;;;;;;51.57;23.63;;;;;;;-145.18;100.00;46656.50;6153285;23;20010;-68
2023/04/17 00:25:21;;;;;;;59.47;23.90;;;;;;;-145.18;100.00;46658.44;6126962;23;20010;-68
2023/04/17 00:27:46;;;;;;;47.53;21.87;;;;;;;-145.18;100.00;46664.31;6153179;23;20006;-68
2023/04/17 00:30:11;;;;;;;50.70;22.87;;;;;;;-145.18;100.00;46662.34;6153171;23;20013;-68
2023/04/17 00:32:37;;;;;;;43.87;20.10;;;;;;;-145.18;100.00;46668.22;6152720;23;20013;-68
2023/04/17 00:35:02;;;;;;;46.20;21.30;;;;;;;-145.18;100.00;46660.41;6153510;23;20538;-68
2023/04/17 00:37:28;;;;;;;46.93;21.37;;;;;;;-145.18;100.00;46664.31;6152751;23;20037;-68
2023/04/17 00:39:53;;;;;;;44.33;21.27;;;;;;;-145.18;100.00;46668.22;6153117;23;20013;-68
2023/04/17 00:42:18;;;;;;;42.17;21.03;;;;;;;-145.18;100.00;46670.16;6152413;23;20021;-68
2023/04/17 00:44:44;;;;;;;46.87;21.17;;;;;;;-145.18;100.00;46664.31;6153022;23;20010;-68
2023/04/17 00:47:09;;;;;;;48.13;19.77;;;;;;;-145.18;100.00;46674.06;6152905;23;20005;-68
2023/04/17 00:49:35;;;;;;;45.30;20.93;;;;;;;-145.18;100.00;46668.22;6153024;23;20391;-68
2023/04/17 00:52:01;;;;;;;50.63;22.33;;;;;;;-145.18;100.00;46668.22;6152836;23;20084;-68
2023/04/17 00:54:27;;;;;;;49.90;22.13;;;;;;;-145.18;100.00;46672.13;6152967;23;20064;-68
2023/04/17 00:56:53;;;;;;;51.40;22.53;;;;;;;-145.18;100.00;46666.25;6152477;23;20228;-68
2023/04/17 00:59:20;;;;;;;41.47;19.73;;;;;;;-145.18;100.00;46670.16;6126851;23;20738;-68
2023/04/17 01:01:46;;;;;;;45.40;21.17;;;;;;;-145.18;100.00;46674.06;6152803;23;20294;-68
2023/04/17 01:04:11;;;;;;;43.97;20.50;;;;;;;-145.18;100.00;46672.13;6152629;23;20256;-68
2023/04/17 01:06:36;;;;;;;45.83;19.93;;;;;;;-145.18;100.00;46668.22;6152632;23;20006;-68
2023/04/17 01:09:03;;;;;;;46.13;19.40;;;;;;;-145.18;100.00;46674.06;6152726;23;20012;-68
2023/04/17 01:11:28;;;;;;;39.53;19.07;;;;;;;-145.18;100.00;46676.03;6152496;23;20439;-68
2023/04/17 01:13:54;;;;;;;35.23;17.37;;;;;;;-145.18;100.00;46672.13;6152570;23;20306;-68
2023/04/17 01:16:19;;;;;;;46.77;20.23;;;;;;;-145.18;100.00;46672.13;6152438;23;20096;-68
2023/04/17 01:18:47;;;;;;;47.77;21.67;;;;;;;-145.18;100.00;46668.22;6152765;23;20449;-68
2023/04/17 01:21:12;;;;;;;48.00;20.17;;;;;;;-145.18;100.00;46670.16;6152576;23;20002;-68
2023/04/17 01:23:48;;;;;;;49.17;20.53;;;;;;;-145.18;100.00;46677.97;6152448;23;20270;-68
2023/04/17 01:26:23;;;;;;;47.13;19.27;;;;;;;-145.18;100.00;46670.16;6152471;23;20036;-68
2023/04/17 01:28:50;;;;;;;51.30;20.90;;;;;;;-145.18;100.00;46670.16;6152833;23;20719;-68
2023/04/17 01:31:16;;;;;;;46.80;19.43;;;;;;;-145.18;100.00;46670.16;6126332;23;20012;-68
2023/04/17 01:33:41;;;;;;;51.20;21.00;;;;;;;-145.18;100.00;46672.13;6152445;23;20259;-68
2023/04/17 01:36:07;;;;;;;48.73;18.90;;;;;;;-145.18;100.00;46672.13;6152525;23;20005;-67
2023/04/17 01:38:32;;;;;;;46.40;19.23;;;;;;;-145.18;100.00;46664.31;6152348;23;20017;-68
2023/04/17 01:40:58;;;;;;;52.60;20.60;;;;;;;-145.18;100.00;46670.16;6152490;23;20399;-68
2023/04/17 01:43:24;;;;;;;43.67;19.03;;;;;;;-145.18;100.00;46666.25;6152240;23;20041;-68
2023/04/17 01:45:49;;;;;;;44.87;18.50;;;;;;;-145.18;100.00;46668.22;6152647;23;20243;-68
2023/04/17 01:48:15;;;;;;;46.00;19.43;;;;;;;-145.18;100.00;46668.22;6151871;23;20343;-68
2023/04/17 01:50:40;;;;;;;43.30;17.73;;;;;;;-145.18;100.00;46668.22;6152931;23;20020;-68
2023/04/17 01:53:05;;;;;;;44.87;19.30;;;;;;;-145.18;100.00;46666.25;6152264;23;20020;-68
2023/04/17 01:55:31;;;;;;;44.83;18.13;;;;;;;-145.18;100.00;46674.06;6152392;23;20014;-68
2023/04/17 01:57:56;;;;;;;43.70;17.70;;;;;;;-145.18;100.00;46668.22;6151992;23;20447;-68
2023/04/17 02:03:11;;;;;;;43.97;18.73;;;;;;;-145.18;100.00;46664.31;6168577;23;20028;-68
2023/04/17 02:05:36;;;;;;;41.40;18.00;;;;;;;-145.18;100.00;46668.22;6181753;23;20239;-68
2023/04/17 02:08:02;;;;;;;41.83;17.50;;;;;;;-145.18;100.00;46668.22;6181617;23;20339;-68
2023/04/17 02:10:27;;;;;;;47.63;18.50;;;;;;;-145.18;100.00;46662.34;6182063;23;20096;-69
2023/04/17 02:12:52;;;;;;;42.30;18.47;;;;;;;-145.18;100.00;46668.22;6181679;23;20088;-68
2023/04/17 02:15:18;;;;;;;45.13;19.07;;;;;;;-145.18;100.00;46666.25;6182316;23;20036;-68
2023/04/17 02:17:43;;;;;;;46.13;19.47;;;;;;;-145.18;100.00;46668.22;6181836;23;20012;-68
2023/04/17 02:20:09;;;;;;;43.30;18.50;;;;;;;-145.18;100.00;46670.16;6182228;23;20009;-68
2023/04/17 02:22:34;;;;;;;40.57;17.27;;;;;;;-145.18;100.00;46664.31;6181767;23;20009;-69
2023/04/17 02:25:00;;;;;;;44.87;17.33;;;;;;;-145.18;100.00;46668.22;6182259;23;20013;-68
2023/04/17 02:27:25;;;;;;;49.60;19.47;;;;;;;-145.18;100.00;46668.22;6181988;23;20435;-68
2023/04/17 02:29:51;;;;;;;44.63;18.83;;;;;;;-145.18;100.00;46668.22;6181935;23;20009;-68
2023/04/17 02:32:16;;;;;;;45.10;18.87;;;;;;;-145.18;100.00;46672.13;6181764;23;20505;-68
2023/04/17 02:34:42;;;;;;;39.10;18.00;;;;;;;-145.18;100.00;46670.16;6182194;23;20013;-68
2023/04/17 02:37:07;;;;;;;41.93;18.27;;;;;;;-145.18;100.00;46668.22;6182054;23;20009;-68
2023/04/17 02:39:34;;;;;;;42.37;17.97;;;;;;;-145.18;100.00;46668.22;6182112;23;20005;-68
2023/04/17 02:42:00;;;;;;;41.77;18.80;;;;;;;-145.18;100.00;46668.22;6156031;23;20362;-69
2023/04/17 02:44:26;;;;;;;36.43;18.20;;;;;;;-145.18;100.00;46666.25;6182029;23;20381;-69
2023/04/17 02:46:51;;;;;;;44.23;19.30;;;;;;;-145.18;100.00;46674.06;6155542;23;20775;-69
2023/04/17 02:49:17;;;;;;;46.83;18.33;;;;;;;-145.18;100.00;46668.22;6182319;23;20013;-69
2023/04/17 02:51:42;;;;;;;36.63;18.27;;;;;;;-145.18;100.00;46672.13;6181491;23;20013;-69
2023/04/17 02:54:07;;;;;;;39.13;17.77;;;;;;;-145.18;100.00;46676.03;6181920;23;20017;-69
2023/04/17 02:56:33;;;;;;;39.97;18.53;;;;;;;-145.18;100.00;46670.16;6181892;23;20039;-69
2023/04/17 02:58:58;;;;;;;41.77;17.80;;;;;;;-145.18;100.00;46672.13;6181557;23;20072;-69
2023/04/17 03:01:23;;;;;;;35.87;16.30;;;;;;;-145.18;100.00;46676.03;6181878;23;20044;-68
2023/04/17 03:03:51;;;;;;;35.53;16.87;;;;;;;-145.18;100.00;46668.22;6181295;23;20465;-68
2023/04/17 03:06:16;;;;;;;31.43;15.17;;;;;;;-145.18;100.00;46672.13;6182126;23;20016;-68
2023/04/17 03:08:42;;;;;;;37.17;15.97;;;;;;;-145.18;100.00;46670.16;6181472;23;20231;-68
2023/04/17 03:11:07;;;;;;;34.50;17.10;;;;;;;-145.18;100.00;46672.13;6181911;23;20096;-68
2023/04/17 03:13:35;;;;;;;35.17;16.17;;;;;;;-145.18;100.00;46672.13;6181579;23;20013;-69
2023/04/17 03:16:00;;;;;;;33.87;14.90;;;;;;;-145.18;100.00;46674.06;6182282;23;20148;-68
2023/04/17 03:18:26;;;;;;;32.17;15.67;;;;;;;-145.18;100.00;46676.03;6178686;23;20691;-68
2023/04/17 03:20:51;;;;;;;35.43;15.83;;;;;;;-145.18;100.00;46677.97;6183593;23;20009;-68
2023/04/17 03:23:17;;;;;;;39.77;16.57;;;;;;;-145.18;100.00;46674.06;6182955;23;20015;-68
2023/04/17 03:25:42;;;;;;;35.70;16.27;;;;;;;-145.18;100.00;46681.88;6183575;23;20037;-68
2023/04/17 03:28:08;;;;;;;34.30;15.57;;;;;;;-145.18;100.00;46672.13;6183414;23;20493;-68
2023/04/17 03:30:33;;;;;;;34.47;15.70;;;;;;;-145.18;100.00;46676.03;6183384;23;20055;-68
2023/04/17 03:32:58;;;;;;;36.83;16.83;;;;;;;-145.18;100.00;46677.97;6157435;23;20029;-68
2023/04/17 03:35:24;;;;;;;36.13;15.80;;;;;;;-145.18;100.00;46681.88;6183608;23;20343;-68
2023/04/17 03:37:49;;;;;;;35.47;15.40;;;;;;;-145.18;100.00;46683.84;6183075;23;20014;-69
2023/04/17 03:40:15;;;;;;;31.70;15.37;;;;;;;-145.18;100.00;46685.78;6183573;23;20017;-69
2023/04/17 03:42:40;;;;;;;39.03;16.40;;;;;;;-145.18;100.00;46679.94;6183081;23;20013;-68
2023/04/17 03:45:06;;;;;;;36.17;16.83;;;;;;;-145.18;100.00;46685.78;6183280;23;20509;-69
2023/04/17 03:47:32;;;;;;;35.53;16.60;;;;;;;-145.18;100.00;46679.94;6183421;23;20013;-69
2023/04/17 03:49:57;;;;;;;36.53;17.80;;;;;;;-145.18;100.00;46676.03;6183198;23;20389;-68
2023/04/17 03:52:22;;;;;;;35.77;16.57;;;;;;;-145.18;100.00;46672.13;6183214;23;20480;-68
2023/04/17 03:54:48;;;;;;;35.60;17.00;;;;;;;-145.18;100.00;46677.97;6183277;23;20426;-68
2023/04/17 03:57:14;;;;;;;35.40;15.63;;;;;;;-145.18;100.00;46674.06;6156963;23;20401;-69
2023/04/17 03:59:39;;;;;;;34.43;16.20;;;;;;;-145.18;100.00;46677.97;6183295;23;20016;-68
2023/04/17 04:02:04;;;;;;;38.20;17.30;;;;;;;-145.18;100.00;46681.88;6183039;23;20266;-68
2023/04/17 04:04:30;;;;;;;34.57;16.73;;;;;;;-145.18;100.00;46679.94;6183136;23;20072;-68
2023/04/17 04:07:00;;;;;;;34.80;16.37;;;;;;;-145.18;100.00;46677.97;6183171;23;20444;-69
2023/04/17 04:09:26;;;;;;;39.03;16.37;;;;;;;-145.18;100.00;46681.88;6157310;23;20016;-69
2023/04/17 04:11:51;;;;;;;32.30;16.57;;;;;;;-145.18;100.00;46679.94;6183045;23;20227;-68
2023/04/17 04:14:16;;;;;;;39.20;16.70;;;;;;;-145.18;100.00;46674.06;6182933;23;20009;-68
2023/04/17 04:16:42;;;;;;;33.73;17.27;;;;;;;-145.18;100.00;46681.88;6183103;23;20323;-68
2023/04/17 04:19:07;;;;;;;33.10;16.67;;;;;;;-145.18;100.00;46674.06;6183380;23;20009;-69
2023/04/17 04:21:33;;;;;;;34.13;16.17;;;;;;;-145.18;100.00;46679.94;6182953;23;20009;-69
2023/04/17 04:23:58;;;;;;;37.47;15.77;;;;;;;-145.18;100.00;46683.84;6182258;23;20100;-68
2023/04/17 04:26:24;;;;;;;35.80;17.43;;;;;;;-145.18;100.00;46681.88;6182981;23;20005;-69
2023/04/17 04:28:49;;;;;;;37.80;17.30;;;;;;;-145.18;100.00;46679.94;6156202;23;20017;-68
2023/04/17 04:31:17;;;;;;;35.27;16.93;;;;;;;-145.18;100.00;46681.88;6182780;23;20080;-68
2023/04/17 04:33:43;;;;;;;34.70;17.83;;;;;;;-145.18;100.00;46676.03;6182743;23;20009;-68
2023/04/17 04:36:12;;;;;;;35.93;17.97;;;;;;;-145.18;100.00;46679.94;6183049;23;20254;-68
2023/04/17 04:38:40;;;;;;;43.23;18.50;;;;;;;-145.18;100.00;46676.03;6182757;23;20219;-69
2023/04/17 04:41:09;;;;;;;42.77;20.37;;;;;;;-145.18;100.00;46679.94;6182937;23;20238;-69
2023/04/17 04:43:35;;;;;;;43.60;19.97;;;;;;;-145.18;100.00;46677.97;6182679;23;20251;-69
2023/04/17 04:46:00;;;;;;;49.33;20.73;;;;;;;-145.18;100.00;46677.97;6183100;23;20600;-69
2023/04/17 04:48:27;;;;;;;35.50;18.90;;;;;;;-145.18;100.00;46679.94;6182560;23;20227;-69
2023/04/17 04:50:53;;;;;;;40.53;19.80;;;;;;;-145.18;100.00;46677.97;6181968;23;20040;-69
2023/04/17 04:53:18;;;;;;;42.93;19.50;;;;;;;-145.18;100.00;46677.97;6181927;23;20672;-69
2023/04/17 04:55:44;;;;;;;43.27;19.27;;;;;;;-145.18;100.00;46683.84;6182698;23;20032;-68
2023/04/17 04:58:09;;;;;;;39.37;18.60;;;;;;;-145.18;100.00;46679.94;6182177;23;20102;-68
2023/04/17 05:00:35;;;;;;;43.47;19.90;;;;;;;-145.18;100.00;46683.84;6181039;23;20020;-69
2023/04/17 05:03:01;;;;;;;40.50;20.03;;;;;;;-145.18;100.00;46683.84;6180943;23;20035;-69
2023/04/17 05:05:27;;;;;;;40.63;20.40;;;;;;;-145.18;100.00;46679.94;6181647;23;20013;-68
2023/04/17 05:07:53;;;;;;;49.53;20.90;;;;;;;-145.18;100.00;46679.94;6180434;23;20251;-69
2023/04/17 05:10:20;;;;;;;42.70;20.27;;;;;;;-145.18;100.00;46685.78;6181322;23;20297;-69
2023/04/17 05:12:46;;;;;;;42.47;20.50;;;;;;;-145.18;100.00;46685.78;6180928;23;20021;-69
2023/04/17 05:15:11;;;;;;;54.40;22.43;;;;;;;-145.18;100.00;46679.94;6182709;23;20565;-69
2023/04/17 05:17:37;;;;;;;42.93;21.63;;;;;;;-145.18;100.00;46679.94;6181055;23;20005;-69
2023/04/17 05:20:05;;;;;;;44.90;19.50;;;;;;;-145.18;100.00;46674.06;6182293;23;20063;-68
2023/04/17 05:22:31;;;;;;;43.57;21.07;;;;;;;-145.18;100.00;46679.94;6181853;23;20238;-68
2023/04/17 05:24:57;;;;;;;47.07;21.03;;;;;;;-145.18;100.00;46676.03;6182045;23;20239;-68
2023/04/17 05:27:22;;;;;;;46.87;22.47;;;;;;;-145.18;100.00;46674.06;6182147;23;20610;-68
2023/04/17 05:29:47;;;;;;;51.10;22.63;;;;;;;-145.18;100.00;46677.97;6155302;23;20014;-68
2023/04/17 05:32:13;;;;;;;43.47;21.33;;;;;;;-145.18;100.00;46681.88;6182159;23;20048;-68
2023/04/17 05:34:38;;;;;;;47.20;21.43;;;;;;;-145.18;100.00;46683.84;6181706;23;20009;-68
2023/04/17 05:37:04;;;;;;;47.00;23.00;;;;;;;-145.18;100.00;46672.13;6182414;23;20009;-68
2023/04/17 05:39:29;;;;;;;43.90;21.33;;;;;;;-145.18;100.00;46676.03;6181226;23;20035;-68
2023/04/17 05:41:55;;;;;;;43.63;21.57;;;;;;;-145.18;100.00;46679.94;6155201;23;20104;-68
2023/04/17 05:44:20;;;;;;;41.70;21.23;;;;;;;-145.18;100.00;46677.97;6181030;23;20097;-68
2023/04/17 05:46:46;;;;;;;49.30;21.77;;;;;;;-145.18;100.00;46676.03;6182123;23;20008;-68
2023/04/17 05:49:11;;;;;;;43.90;21.93;;;;;;;-145.18;100.00;46677.97;6181893;23;20009;-68
2023/04/17 05:51:36;;;;;;;44.93;22.57;;;;;;;-145.18;100.00;46685.78;6181946;23;20009;-68
2023/04/17 05:54:02;;;;;;;47.37;21.67;;;;;;;-145.18;100.00;46679.94;6182104;23;20080;-68
2023/04/17 05:56:27;;;;;;;42.23;21.63;;;;;;;-145.18;100.00;46681.88;6182420;23;20016;-68
2023/04/17 05:58:52;;;;;;;48.27;21.63;;;;;;;-145.18;100.00;46676.03;6181785;23;20009;-68
2023/04/17 06:01:21;;;;;;;49.60;22.17;;;;;;;-145.18;100.00;46691.66;6182271;23;20447;-68
2023/04/17 06:03:47;;;;;;;45.97;21.97;;;;;;;-145.18;100.00;46677.97;6178485;23;20020;-68
2023/04/17 06:06:12;;;;;;;46.63;22.20;;;;;;;-145.18;100.00;46685.78;6182304;23;20298;-68
2023/04/17 06:08:38;;;;;;;49.13;22.37;;;;;;;-145.18;100.00;46685.78;6181699;23;20029;-68
2023/04/17 06:11:03;;;;;;;45.20;22.00;;;;;;;-145.18;100.00;46685.78;6182369;23;20005;-68
2023/04/17 06:13:29;;;;;;;45.83;22.43;;;;;;;-145.18;100.00;46689.69;6181546;23;20012;-68
2023/04/17 06:15:54;;;;;;;44.50;21.50;;;;;;;-145.18;100.00;46685.78;6181679;23;20012;-68
2023/04/17 06:18:19;;;;;;;46.33;22.17;;;;;;;-145.18;100.00;46683.84;6182127;23;20029;-68
2023/04/17 06:20:45;;;;;;;45.60;22.90;;;;;;;-145.18;100.00;46683.84;6181976;23;20029;-68
2023/04/17 06:23:11;;;;;;;44.10;20.70;;;;;;;-145.18;100.00;46681.88;6181775;23;20013;-68
2023/04/17 06:25:36;;;;;;;43.53;21.37;;;;;;;-145.18;100.00;46683.84;6181521;23;20001;-68
2023/04/17 06:28:02;;;;;;;48.87;22.33;;;;;;;-145.18;100.00;46685.78;6181371;23;20012;-68
2023/04/17 06:30:28;;;;;;;45.50;21.90;;;;;;;-145.18;100.00;46685.78;6182124;23;20045;-68
2023/04/17 06:32:53;;;;;;;49.97;21.63;;;;;;;-145.18;100.00;46681.88;6181591;23;20021;-68
2023/04/17 06:35:19;;;;;;;44.33;20.93;;;;;;;-145.18;100.00;46683.84;6181960;23;20013;-68
2023/04/17 06:37:44;;;;;;;46.80;21.03;;;;;;;-145.18;100.00;46685.78;6181858;23;20092;-68
2023/04/17 06:40:11;;;;;;;47.27;20.73;;;;;;;-145.18;100.00;46679.94;6182185;23;20333;-68
2023/04/17 06:42:36;;;;;;;39.20;20.03;;;;;;;-145.18;100.00;46681.88;6181579;23;20092;-68
2023/04/17 06:45:02;;;;;;;39.30;19.60;;;;;;;-145.18;100.00;46683.84;6182193;23;20237;-68
2023/04/17 06:47:27;;;;;;;43.97;20.47;;;;;;;-145.18;100.00;46687.75;6181802;23;20100;-68
2023/04/17 06:49:53;;;;;;;43.93;21.57;;;;;;;-145.18;100.00;46685.78;6181979;23;20187;-69
2023/04/17 06:52:20;;;;;;;50.17;23.90;;;;;;;-145.18;100.00;46679.94;6155879;23;20012;-68
2023/04/17 06:54:46;;;;;;;52.53;24.23;;;;;;;-145.18;100.00;46685.78;6182831;23;20013;-68
2023/04/17 06:57:12;;;;;;;52.67;25.63;;;;;;;-145.18;100.00;46683.84;6183830;23;20359;-68
2023/04/17 06:59:37;;;;;;;50.10;25.03;;;;;;;-145.18;100.00;46681.88;6183522;23;20042;-68
2023/04/17 07:02:03;;;;;;;52.13;24.43;;;;;;;-145.18;100.00;46685.78;6183697;23;20427;-68
2023/04/17 07:04:31;;;;;;;47.93;23.57;;;;;;;-145.18;100.00;46685.78;6183584;23;20013;-68
2023/04/17 07:06:57;;;;;;;42.03;22.33;;;;;;;-145.18;100.00;46685.78;6183580;23;20016;-68
2023/04/17 07:09:23;;;;;;;50.23;22.33;;;;;;;-145.18;100.00;46683.84;6183661;23;20592;-69
2023/04/17 07:11:48;;;;;;;47.23;22.97;;;;;;;-145.18;100.00;46679.94;6183686;23;20016;-69
2023/04/17 07:14:14;;;;;;;48.67;21.23;;;;;;;-145.18;100.00;46683.84;6183260;23;20219;-68
2023/04/17 07:16:39;;;;;;;42.87;21.37;;;;;;;-145.18;100.00;46685.78;6183468;23;20088;-68
2023/04/17 07:19:05;;;;;;;41.60;20.33;;;;;;;-145.18;100.00;46687.75;6183775;23;20005;-68
2023/04/17 07:21:31;;;;;;;42.60;22.93;;;;;;;-145.18;100.00;46683.84;6183618;23;20033;-68
2023/04/17 07:23:56;;;;;;;42.80;21.60;;;;;;;-145.18;100.00;46683.84;6183210;23;20020;-68
2023/04/17 07:26:22;;;;;;;47.80;22.67;;;;;;;-145.18;100.00;46685.78;6183659;23;20239;-68
2023/04/17 07:28:47;;;;;;;44.40;22.47;;;;;;;-145.18;100.00;46683.84;6183225;23;20343;-68
2023/04/17 07:31:13;;;;;;;42.87;21.57;;;;;;;-145.18;100.00;46683.84;6183609;23;20060;-68
2023/04/17 07:33:38;;;;;;;43.47;21.80;;;;;;;-145.18;100.00;46685.78;6183246;23;20005;-68
2023/04/17 07:36:04;;;;;;;42.93;22.37;;;;;;;-145.18;100.00;46683.84;6183847;23;20005;-68
2023/04/17 07:38:31;;;;;;;42.07;21.47;;;;;;;-145.18;100.00;46689.69;6183381;23;20005;-68
2023/04/17 07:40:57;;;;;;;45.80;21.90;;;;;;;-145.18;100.00;46687.75;6183364;23;20735;-68
2023/04/17 07:43:22;;;;;;;43.93;20.60;;;;;;;-145.18;100.00;46689.69;6183408;23;20235;-68
2023/04/17 07:45:48;;;;;;;42.77;20.83;;;;;;;-145.18;100.00;46689.69;6157223;23;20015;-68
2023/04/17 07:48:13;;;;;;;40.77;21.03;;;;;;;-145.18;100.00;46687.75;6153435;23;20013;-68
2023/04/17 07:50:39;;;;;;;40.23;21.40;;;;;;;-145.18;100.00;46689.69;6182705;23;20013;-69
2023/04/17 07:53:04;;;;;;;44.90;22.43;;;;;;;-145.18;100.00;46689.69;6183293;23;20009;-68
2023/04/17 07:55:30;;;;;;;43.97;21.60;;;;;;;-145.18;100.00;46689.69;6156071;23;20140;-68
2023/04/17 07:57:55;;;;;;;45.23;22.80;;;;;;;-145.18;100.00;46683.84;6179956;23;20009;-68
2023/04/17 08:00:20;;;;;;;40.67;19.60;;;;;;;-145.18;100.00;46685.78;6181399;23;20013;-68
2023/04/17 08:02:46;;;;;;;39.77;19.73;;;;;;;-145.18;100.00;46683.84;6182588;23;20031;-67
2023/04/17 08:05:11;;;;;;;40.47;20.10;;;;;;;-145.18;100.00;46687.75;6182400;23;20033;-67
2023/04/17 08:07:37;;;;;;;43.33;21.03;;;;;;;-145.18;100.00;46691.66;6183266;23;20009;-67
2023/04/17 08:10:04;;;;;;;40.00;20.00;;;;;;;-145.18;100.00;46685.78;6183021;23;20036;-67
2023/04/17 08:12:29;;;;;;;42.23;21.53;;;;;;;-145.18;100.00;46687.75;6183026;23;20016;-67
2023/04/17 08:14:54;;;;;;;40.90;20.17;;;;;;;-145.18;100.00;46685.78;6182229;23;20239;-67
2023/04/17 08:17:22;;;;;;;44.23;20.77;;;;;;;-145.18;100.00;46685.78;6182780;23;20012;-67
2023/04/17 08:19:52;;;;;;;44.67;21.70;;;;;;;-145.18;100.00;46687.75;6182709;23;20012;-67
2023/04/17 08:22:20;;;;;;;43.80;20.83;;;;;;;-145.18;100.00;46691.66;6183063;23;20227;-67
2023/04/17 08:24:46;;;;;;;50.30;23.93;;;;;;;-145.18;100.00;46689.69;6181913;23;20209;-67
2023/04/17 08:27:13;;;;;;;47.93;22.37;;;;;;;-145.18;100.00;46685.78;6183114;23;20238;-67
2023/04/17 08:29:39;;;;;;;44.20;21.07;;;;;;;-145.18;100.00;46681.88;6181829;23;20235;-67
2023/04/17 08:32:04;;;;;;;46.50;21.67;;;;;;;-145.18;100.00;46689.69;6182646;23;20613;-67
2023/04/17 08:34:31;;;;;;;47.73;22.57;;;;;;;-145.18;100.00;46687.75;6182458;23;20017;-67
2023/04/17 08:36:57;;;;;;;54.77;26.43;;;;;;;-145.18;100.00;46691.66;6181319;23;20430;-67
2023/04/17 08:39:22;;;;;;;52.77;25.57;;;;;;;-145.18;100.00;46687.75;6182706;23;20496;-67
2023/04/17 08:41:59;;;;;;;52.47;24.90;;;;;;;-145.18;100.00;46689.69;6182871;23;20043;-67
2023/04/17 08:44:25;;;;;;;47.03;21.33;;;;;;;-145.18;100.00;46687.75;6182586;23;20009;-67
2023/04/17 08:46:51;;;;;;;46.37;22.70;;;;;;;-145.18;100.00;46687.75;6182390;23;20243;-67
2023/04/17 08:49:17;;;;;;;43.17;21.10;;;;;;;-145.18;100.00;46691.66;6156590;23;20568;-67
2023/04/17 08:51:42;;;;;;;42.47;21.70;;;;;;;-145.18;100.00;46691.66;6182542;23;20220;-67
2023/04/17 08:54:08;;;;;;;38.30;19.23;;;;;;;-145.18;100.00;46691.66;6182582;23;20679;-67
2023/04/17 08:56:33;;;;;;;40.83;20.63;;;;;;;-145.18;100.00;46691.66;6182390;23;20013;-68
2023/04/17 08:58:58;;;;;;;45.67;20.70;;;;;;;-145.18;100.00;46691.66;6182420;23;20076;-68
2023/04/17 09:01:24;;;;;;;37.87;20.20;;;;;;;-145.18;100.00;46691.66;6182794;23;20327;-67
2023/04/17 09:03:50;;;;;;;42.50;20.30;;;;;;;-145.18;100.00;46685.78;6150669;23;20470;-67
2023/04/17 09:06:16;;;;;;;37.97;19.87;;;;;;;-145.18;100.00;46685.78;6153127;23;20013;-67
2023/04/17 09:09:00;;;;;;;43.00;22.60;;;;;;;-145.18;100.00;46658.44;6152120;23;20005;-67
2023/04/17 09:11:26;;;;;;;43.90;23.10;;;;;;;-145.18;100.00;46627.19;6152704;23;20380;-68
2023/04/17 09:13:52;;;;;;;37.97;20.90;;;;;;;-145.18;100.00;46586.16;6152477;23;20339;-67
2023/04/17 09:16:21;;;;;;;37.63;20.27;;;;;;;-145.18;100.00;46580.31;6152115;23;20012;-67
2023/04/17 09:18:47;;;;;;;37.73;20.00;;;;;;;-145.18;100.00;46568.59;6150773;23;20109;-68
2023/04/17 09:21:15;;;;;;;34.70;19.63;;;;;;;-145.18;100.00;46572.50;6152889;23;20009;-67
2023/04/17 09:23:49;;;;;;;34.90;19.63;;;;;;;-145.18;100.00;46570.53;6152480;23;20009;-67
2023/04/17 09:26:20;;;;;;;36.43;18.00;;;;;;;-145.18;100.00;46572.50;6152599;23;20017;-67
2023/04/17 09:28:59;;;;;;;37.07;19.70;;;;;;;-145.18;100.00;46584.22;6152493;23;20013;-67
2023/04/17 09:31:29;;;;;;;40.00;20.00;;;;;;;-145.18;100.00;46593.97;6152728;23;20052;-67
2023/04/17 09:34:14;;;;;;;37.23;20.77;;;;;;;-145.18;100.00;46597.88;6152073;23;20052;-67
2023/04/17 09:36:42;;;;;;;32.07;18.50;;;;;;;-145.18;100.00;46603.75;6151175;23;20033;-68
2023/04/17 09:39:24;;;;;;;35.97;18.27;;;;;;;-145.18;100.00;46609.59;6152720;23;20020;-69
2023/04/17 09:42:00;;;;;;;30.77;17.30;;;;;;;-145.18;100.00;46609.59;6152470;23;20064;-69
2023/04/17 09:44:27;;;;;;;33.07;17.67;;;;;;;-145.18;100.00;46613.50;6151922;23;20076;-69
2023/04/17 09:46:53;;;;;;;35.53;18.50;;;;;;;-145.18;100.00;46613.50;6152446;23;20051;-69
2023/04/17 09:49:24;;;;;;;34.07;19.60;;;;;;;-145.18;100.00;46619.38;6152507;23;20435;-69
2023/04/17 09:51:51;;;;;;;35.20;19.27;;;;;;;-145.18;100.00;46619.38;6152457;23;20009;-69
2023/04/17 09:54:18;;;;;;;32.93;18.83;;;;;;;-145.18;100.00;46617.41;6152074;23;20012;-69
2023/04/17 09:56:46;;;;;;;32.97;19.03;;;;;;;-145.18;100.00;46619.38;6152425;23;20009;-69
2023/04/17 09:59:11;;;;;;;36.37;18.27;;;;;;;-145.18;100.00;46619.38;6152280;23;20072;-69
2023/04/17 10:01:37;;;;;;;32.10;18.03;;;;;;;-145.18;100.00;46619.38;6152996;23;20451;-69
2023/04/17 10:04:03;;;;;;;42.03;19.30;;;;;;;-145.18;100.00;46629.13;6177238;23;20028;-69
2023/04/17 10:06:31;;;;;;;33.50;19.23;;;;;;;-145.18;100.00;46646.72;6182147;23;20013;-69
2023/04/17 10:08:56;;;;;;;31.80;18.87;;;;;;;-145.18;100.00;46646.72;6181649;23;20137;-69
2023/04/17 10:11:24;;;;;;;36.33;19.00;;;;;;;-145.18;100.00;46638.91;6182185;23;20045;-69
2023/04/17 10:14:10;;;;;;;27.23;16.70;;;;;;;-145.18;100.00;46662.34;6181752;23;20020;-67
2023/04/17 10:16:42;;;;;;;32.42;17.27;;;;;;;-145.18;100.00;46679.94;6182057;23;20009;-69
2023/04/17 10:19:27;;;;;;;30.23;17.17;;;;;;;-145.18;100.00;46695.56;6182156;23;20390;-69
2023/04/17 10:22:14;;;;;;;35.88;19.45;;;;;;;-145.18;100.00;46730.72;6182347;23;20331;-69
2023/04/17 10:24:43;;;;;;;33.83;17.13;;;;;;;-145.18;100.00;46746.34;6181552;23;20016;-69
2023/04/17 10:27:26;;;;;;;31.37;18.00;;;;;;;-145.18;100.00;46775.66;6181988;23;20009;-69
2023/04/17 10:29:55;;;;;;;30.33;17.20;;;;;;;-145.18;100.00;46781.50;6182980;23;20048;-69
2023/04/17 10:32:27;;;;;;;34.03;18.60;;;;;;;-145.18;100.00;46769.78;6184223;23;20005;-69
2023/04/17 10:34:56;;;;;;;30.27;16.37;;;;;;;-145.18;100.00;46789.31;6182895;23;20023;-69
2023/04/17 10:37:48;;;;;;;28.97;17.53;;;;;;;-145.18;100.00;46761.97;6183819;23;20447;-69
2023/04/17 10:40:21;;;;;;;29.20;16.80;;;;;;;-145.18;100.00;46699.47;6183122;23;20027;-69
2023/04/17 10:43:19;;;;;;;34.23;17.90;;;;;;;-145.18;100.00;46719.00;6183736;23;20061;-69
2023/04/17 10:46:12;;;;;;;30.63;18.83;;;;;;;-145.18;100.00;46693.59;6183130;23;20016;-69
2023/04/17 10:48:48;;;;;;;31.83;17.33;;;;;;;-145.18;100.00;46679.94;6183591;23;20032;-69
2023/04/17 10:53:58;;;;;;;29.87;16.33;;;;;;;-145.18;100.00;46681.88;6183260;23;20036;-69
2023/04/17 10:56:42;;;;;;;30.53;16.97;;;;;;;-145.18;100.00;46666.25;6183987;23;20059;-69
2023/04/17 10:59:08;;;;;;;31.37;15.87;;;;;;;-145.18;100.00;46674.06;6183604;23;20039;-69